Time;durP1;ratioP1;P1;durP2;ratioP2;P2;SDS_P1;SDS_P2;PMS_P1;PMS_P2;Temp;Humidity;BMP_temperature;BMP_pressure;BME280_temperature;BME280_humidity;BME280_pressure;Samples;Min_cycle;Max_cycle;Signal;HPM_P1;HPM_P2
2022/09/24 00:00:53;;;;;;;146.57;29.45;;;;;;;;;;5049466;28;20048;-61
2022/09/24 00:03:20;;;;;;;70.43;25.35;;;;;;;;;;5050568;28;20398;-61
2022/09/24 00:05:47;;;;;;;93.38;28.23;;;;;;;;;;5045575;28;20041;-62
2022/09/24 00:08:15;;;;;;;91.28;27.13;;;;;;;;;;5044451;28;20068;-63
2022/09/24 00:10:42;;;;;;;83.40;28.27;;;;;;;;;;5045898;28;20485;-63
2022/09/24 00:13:11;;;;;;;85.07;29.10;;;;;;;;;;5045090;28;20033;-64
2022/09/24 00:15:41;;;;;;;115.68;31.33;;;;;;;;;;5049578;28;20063;-61
2022/09/24 00:18:09;;;;;;;110.70;31.05;;;;;;;;;;5048098;28;20075;-60
2022/09/24 00:20:36;;;;;;;77.90;26.58;;;;;;;;;;5045038;28;20052;-60
2022/09/24 00:23:04;;;;;;;126.47;32.50;;;;;;;;;;5044342;28;20098;-60
2022/09/24 00:28:16;;;;;;;137.32;32.70;;;;;;;;;;5045009;28;20140;-61
2022/09/24 00:30:43;;;;;;;94.63;31.63;;;;;;;;;;5047990;28;20037;-61
2022/09/24 00:33:10;;;;;;;96.13;33.15;;;;;;;;;;5045865;28;20088;-60
2022/09/24 20:52:09;;;;;;;116.65;41.53;;;;;;;;;;5062752;28;20455;-63
2022/09/24 20:54:35;;;;;;;112.35;39.53;;;;;;;;;;5046186;28;20491;-62
2022/09/24 20:57:02;;;;;;;104.57;39.47;;;;;;;;;;5045546;28;20056;-60
2022/09/24 20:59:29;;;;;;;145.88;41.50;;;;;;;;;;5045541;28;20038;-60
2022/09/24 21:01:55;;;;;;;153.50;47.97;;;;;;;;;;5045504;28;20045;-59
2022/09/24 21:04:23;;;;;;;121.18;46.30;;;;;;;;;;5045761;28;20034;-61
2022/09/24 21:06:49;;;;;;;126.75;45.80;;;;;;;;;;5046342;28;20133;-58
2022/09/24 21:09:16;;;;;;;126.72;45.80;;;;;;;;;;5045609;28;20046;-59
2022/09/24 21:11:42;;;;;;;117.13;42.92;;;;;;;;;;5045363;28;20075;-61
2022/09/24 21:14:09;;;;;;;121.88;44.10;;;;;;;;;;5045395;28;20037;-60
2022/09/24 21:16:36;;;;;;;124.97;44.95;;;;;;;;;;5045388;28;20489;-61
2022/09/24 21:19:04;;;;;;;141.02;46.78;;;;;;;;;;5045558;28;20048;-61
2022/09/24 21:21:33;;;;;;;136.57;51.63;;;;;;;;;;5044164;28;20045;-61
2022/09/24 21:24:00;;;;;;;145.43;47.67;;;;;;;;;;5041211;28;20498;-61
2022/09/24 21:26:27;;;;;;;108.72;48.25;;;;;;;;;;5041220;28;20044;-60
2022/09/24 21:28:55;;;;;;;147.82;50.28;;;;;;;;;;5041149;28;20491;-60
2022/09/24 21:31:22;;;;;;;142.55;48.53;;;;;;;;;;5041333;28;20148;-61
2022/09/24 21:33:53;;;;;;;123.35;46.50;;;;;;;;;;5041814;28;20483;-60
2022/09/24 21:36:23;;;;;;;136.02;49.28;;;;;;;;;;5040977;28;20052;-61
2022/09/24 21:38:52;;;;;;;141.95;50.35;;;;;;;;;;5039422;28;20063;-61
2022/09/24 21:41:20;;;;;;;140.68;56.83;;;;;;;;;;5040083;28;20041;-60
2022/09/24 21:43:46;;;;;;;136.55;56.72;;;;;;;;;;5040453;28;20037;-60
2022/09/24 21:46:13;;;;;;;147.43;54.85;;;;;;;;;;5041955;28;20885;-60
2022/09/24 21:48:39;;;;;;;116.35;53.53;;;;;;;;;;5044780;28;20037;-62
2022/09/24 21:51:07;;;;;;;134.00;54.60;;;;;;;;;;5038337;28;20057;-61
2022/09/24 21:53:34;;;;;;;155.48;56.38;;;;;;;;;;5026214;28;20377;-61
2022/09/24 21:56:01;;;;;;;128.93;52.28;;;;;;;;;;5030489;28;20060;-61
2022/09/24 21:58:28;;;;;;;121.13;50.42;;;;;;;;;;5027334;28;20042;-61
2022/09/24 22:00:55;;;;;;;155.77;56.28;;;;;;;;;;5030955;28;20296;-61
2022/09/24 22:03:22;;;;;;;128.52;53.00;;;;;;;;;;5028272;28;20060;-60
2022/09/24 22:05:49;;;;;;;148.43;58.83;;;;;;;;;;5026995;28;20116;-61
2022/09/24 22:08:17;;;;;;;130.95;52.03;;;;;;;;;;5026468;28;20491;-61
2022/09/24 22:10:44;;;;;;;111.53;51.85;;;;;;;;;;5027227;28;20025;-61
2022/09/24 22:13:13;;;;;;;144.27;53.83;;;;;;;;;;5028871;28;20038;-60
2022/09/24 22:15:43;;;;;;;155.23;54.97;;;;;;;;;;5030675;28;20137;-60
2022/09/24 22:18:10;;;;;;;135.90;52.92;;;;;;;;;;5026825;28;20506;-60
2022/09/24 22:20:40;;;;;;;119.35;52.85;;;;;;;;;;5026673;28;20093;-60
2022/09/24 22:23:07;;;;;;;121.43;52.13;;;;;;;;;;5026146;28;20041;-60
2022/09/24 22:25:34;;;;;;;130.27;53.55;;;;;;;;;;5026484;28;20034;-59
2022/09/24 22:28:00;;;;;;;157.82;53.97;;;;;;;;;;5028994;28;20045;-59
2022/09/24 22:30:27;;;;;;;138.88;53.22;;;;;;;;;;5028152;28;20041;-60
2022/09/24 22:32:53;;;;;;;143.90;52.53;;;;;;;;;;5025866;28;20045;-64
2022/09/24 22:38:08;;;;;;;130.02;52.63;;;;;;;;;;5026318;28;20057;-63
2022/09/24 22:40:35;;;;;;;120.05;51.25;;;;;;;;;;5026760;28;20532;-59
2022/09/24 22:43:02;;;;;;;145.00;53.20;;;;;;;;;;5030993;28;20141;-59
2022/09/24 22:45:28;;;;;;;140.27;54.17;;;;;;;;;;5031144;28;20056;-60
2022/09/24 22:47:55;;;;;;;146.45;52.70;;;;;;;;;;5026312;28;20050;-59
2022/09/24 22:50:22;;;;;;;144.80;51.58;;;;;;;;;;5026021;28;20601;-59
2022/09/24 22:52:49;;;;;;;128.55;51.95;;;;;;;;;;5026311;28;20037;-60
2022/09/24 22:55:15;;;;;;;129.80;52.20;;;;;;;;;;5027188;28;20049;-60
2022/09/24 22:57:41;;;;;;;163.45;54.45;;;;;;;;;;5029391;28;20045;-60
2022/09/24 23:00:08;;;;;;;119.70;49.58;;;;;;;;;;5025695;28;20037;-61
2022/09/24 23:02:35;;;;;;;122.63;49.60;;;;;;;;;;5025092;28;20102;-61
2022/09/24 23:05:02;;;;;;;151.52;53.80;;;;;;;;;;5024476;28;20045;-64
2022/09/24 23:07:28;;;;;;;126.88;53.00;;;;;;;;;;5025924;28;20044;-60
2022/09/24 23:09:55;;;;;;;127.18;49.58;;;;;;;;;;5030231;28;20050;-61
2022/09/24 23:12:21;;;;;;;162.30;55.92;;;;;;;;;;5026700;28;20518;-61
2022/09/24 23:14:51;;;;;;;132.45;52.50;;;;;;;;;;5026233;28;20140;-59
2022/09/24 23:17:19;;;;;;;140.68;55.40;;;;;;;;;;5025731;28;20048;-58
2022/09/24 23:19:48;;;;;;;160.02;57.35;;;;;;;;;;5025542;28;20036;-60
2022/09/24 23:22:15;;;;;;;144.32;52.42;;;;;;;;;;5026373;28;20112;-59
2022/09/24 23:24:42;;;;;;;127.97;55.28;;;;;;;;;;5029703;28;20053;-59
2022/09/24 23:27:09;;;;;;;178.77;55.30;;;;;;;;;;5025201;28;20064;-59
2022/09/24 23:29:36;;;;;;;136.27;55.22;;;;;;;;;;5023915;28;20037;-60
2022/09/24 23:32:03;;;;;;;162.38;57.78;;;;;;;;;;5014517;28;20049;-60
2022/09/24 23:34:29;;;;;;;168.80;55.72;;;;;;;;;;5024648;28;20042;-59
2022/09/24 23:36:56;;;;;;;152.35;55.08;;;;;;;;;;5029144;28;20408;-59
2022/09/24 23:39:22;;;;;;;142.60;56.83;;;;;;;;;;5026382;28;20087;-59
2022/09/24 23:41:49;;;;;;;193.93;60.22;;;;;;;;;;5025106;28;20048;-59
2022/09/24 23:44:16;;;;;;;116.97;52.17;;;;;;;;;;5025502;28;20052;-60
2022/09/24 23:46:42;;;;;;;137.77;55.92;;;;;;;;;;5025226;28;20077;-59
2022/09/24 23:49:09;;;;;;;173.07;57.83;;;;;;;;;;5027076;28;20048;-58
2022/09/24 23:51:36;;;;;;;133.20;55.67;;;;;;;;;;5028086;28;20060;-58
2022/09/24 23:54:02;;;;;;;149.23;54.67;;;;;;;;;;5024802;28;20574;-59
2022/09/24 23:56:29;;;;;;;161.45;57.00;;;;;;;;;;5024655;28;20157;-59
2022/09/24 23:58:56;;;;;;;130.27;53.20;;;;;;;;;;5024640;28;20079;-60
